createdAt,value
2023-03-06T12:56:02.017Z,100137.09
2023-03-06T12:58:31.936Z,100146.47
2023-03-06T13:01:14.024Z,100142.22
2023-03-06T13:03:59.751Z,100138.53
2023-03-06T13:06:26.604Z,100137.88
2023-03-06T13:09:12.301Z,100137.41
2023-03-06T13:11:54.403Z,100143.72
2023-03-06T13:14:31.064Z,100140.22
2023-03-06T13:17:20.774Z,100135.69
2023-03-06T13:19:48.784Z,100146.44
2023-03-06T13:22:29.525Z,100134.72
2023-03-06T13:25:21.155Z,100144.97
2023-03-06T13:27:47.988Z,100147.91
2023-03-06T13:30:36.767Z,100125.47
2023-03-06T13:33:31.507Z,100140.56
2023-03-06T13:36:17.117Z,100140.31
2023-03-06T13:38:44.031Z,100134.03
2023-03-06T13:41:23.242Z,100124.47
2023-03-06T13:43:54.978Z,100135.97
2023-03-06T13:46:31.728Z,100124.47
2023-03-06T13:49:16.639Z,100132.91
2023-03-06T13:51:58.152Z,100114.75
2023-03-06T13:54:57.310Z,100122.69
2023-03-06T13:57:46.628Z,100118.97
2023-03-06T14:00:35.307Z,100120.38
2023-03-06T14:03:02.171Z,100127.69
2023-03-06T14:05:47.000Z,100130.56
2023-03-06T14:08:21.067Z,100120.69
2023-03-06T14:10:58.024Z,100123.00
2023-03-06T14:13:35.159Z,100117.34
2023-03-06T14:16:21.500Z,100124.94
2023-03-06T14:18:50.891Z,100130.66
2023-03-06T14:21:39.600Z,100134.22
2023-03-06T14:24:06.582Z,100126.28
2023-03-06T14:26:43.481Z,100132.44
2023-03-06T14:29:24.978Z,100128.38
2023-03-06T14:31:54.807Z,100129.50
2023-03-06T14:34:45.552Z,100127.53
2023-03-06T14:37:24.758Z,100138.00
2023-03-06T14:39:51.916Z,100133.84
2023-03-06T14:42:29.017Z,100128.63
2023-03-06T14:45:16.427Z,100119.88
2023-03-06T14:47:49.263Z,100121.31
2023-03-06T14:50:26.453Z,100120.00
2023-03-06T14:52:59.518Z,100129.09
2023-03-06T14:55:29.841Z,100135.69
2023-03-06T14:58:11.844Z,100121.94
2023-03-06T15:00:43.722Z,100125.97
2023-03-06T15:03:21.510Z,100139.38
2023-03-06T15:05:50.430Z,100138.44
2023-03-06T15:08:29.652Z,100130.34
2023-03-06T15:11:02.474Z,100141.44
2023-03-06T15:13:31.552Z,100138.97
2023-03-06T15:16:04.649Z,100130.41
2023-03-06T15:18:59.271Z,100133.31
2023-03-06T15:21:28.637Z,100135.41
2023-03-06T15:23:57.543Z,100137.66
2023-03-06T15:26:37.089Z,100138.63
2023-03-06T15:29:10.847Z,100146.88
2023-03-06T15:31:42.734Z,100144.81
2023-03-06T15:34:09.592Z,100134.22
2023-03-06T15:36:58.243Z,100132.41
2023-03-06T15:39:33.014Z,100134.34
2023-03-06T15:42:20.264Z,100136.09
2023-03-06T15:44:49.907Z,100150.25
2023-03-06T15:47:17.496Z,100137.16
2023-03-06T15:49:44.662Z,100142.00
2023-03-06T15:52:11.826Z,100146.84
2023-03-06T15:54:38.692Z,100135.16
2023-03-06T15:57:07.333Z,100141.44
2023-03-06T15:59:41.583Z,100143.50
2023-03-06T16:02:18.268Z,100140.28
2023-03-06T16:04:45.916Z,100143.38
2023-03-06T16:07:13.512Z,100144.38
2023-03-06T16:09:43.802Z,100146.31
2023-03-06T16:12:21.498Z,100137.88
2023-03-06T16:14:49.679Z,100146.13
2023-03-06T16:17:17.595Z,100156.88
2023-03-06T16:19:44.640Z,100158.22
2023-03-06T16:22:12.099Z,100153.72
2023-03-06T16:24:38.938Z,100157.41
2023-03-06T16:27:07.263Z,100159.69
2023-03-06T16:29:35.197Z,100153.84
2023-03-06T16:32:02.510Z,100163.00
2023-03-06T16:34:29.550Z,100163.28
2023-03-06T16:36:56.663Z,100166.75
2023-03-06T16:39:24.589Z,100165.72
2023-03-06T16:41:52.096Z,100164.72
2023-03-06T16:44:20.041Z,100166.84
2023-03-06T16:46:49.701Z,100170.50
2023-03-06T16:49:18.629Z,100172.25
2023-03-06T16:51:45.781Z,100165.44
2023-03-06T16:54:13.321Z,100168.81
2023-03-06T16:56:40.204Z,100167.91
2023-03-06T16:59:07.374Z,100171.22
2023-03-06T17:01:34.398Z,100162.31
2023-03-06T17:04:01.294Z,100163.44
2023-03-06T17:06:28.718Z,100165.88
2023-03-06T17:08:58.249Z,100165.16
2023-03-06T17:11:25.184Z,100169.41
2023-03-06T17:13:52.259Z,100173.88
2023-03-06T17:16:19.326Z,100168.81
2023-03-06T17:18:46.480Z,100172.19
2023-03-06T17:21:17.487Z,100176.25
2023-03-06T17:23:44.791Z,100173.50
2023-03-06T17:26:14.760Z,100179.38
2023-03-06T17:28:42.556Z,100175.50
2023-03-06T17:31:16.515Z,100176.75
2023-03-06T17:33:44.427Z,100172.69
2023-03-06T17:36:11.969Z,100180.19
2023-03-06T17:38:38.946Z,100173.28
2023-03-06T17:41:07.687Z,100183.44
2023-03-06T17:43:34.652Z,100184.84
2023-03-06T17:46:09.894Z,100179.19
2023-03-06T17:48:37.329Z,100186.28
2023-03-06T17:51:04.745Z,100173.59
2023-03-06T17:53:31.693Z,100180.50
2023-03-06T17:55:58.679Z,100182.13
2023-03-06T17:58:26.696Z,100186.28
2023-03-06T18:00:53.583Z,100175.94
2023-03-06T18:03:20.565Z,100170.75
2023-03-06T18:05:47.552Z,100177.97
2023-03-06T18:08:14.512Z,100180.09
2023-03-06T18:10:43.421Z,100177.78
2023-03-06T18:13:11.026Z,100170.66
2023-03-06T18:15:41.422Z,100175.63
2023-03-06T18:18:08.889Z,100180.50
2023-03-06T18:20:41.269Z,100179.41
2023-03-06T18:23:08.363Z,100181.22
2023-03-06T18:25:35.644Z,100185.16
2023-03-06T18:28:02.516Z,100182.22
2023-03-06T18:30:29.361Z,100180.63
2023-03-06T18:32:56.377Z,100184.47
2023-03-06T18:35:23.250Z,100186.50
2023-03-06T18:37:50.075Z,100180.31
2023-03-06T18:40:17.096Z,100191.16
2023-03-06T18:42:43.976Z,100182.75
2023-03-06T18:45:11.842Z,100193.41
2023-03-06T18:47:39.822Z,100196.38
2023-03-06T18:50:07.241Z,100192.78
2023-03-06T18:52:34.991Z,100189.53
2023-03-06T18:55:01.896Z,100192.06
2023-03-06T18:57:30.295Z,100193.16
2023-03-06T18:59:57.369Z,100184.72
2023-03-06T19:02:24.332Z,100184.41
2023-03-06T19:04:52.894Z,100177.09
2023-03-06T19:07:19.947Z,100175.53
2023-03-06T19:09:48.374Z,100181.00
2023-03-06T19:12:15.820Z,100173.50
2023-03-06T19:14:44.296Z,100175.00
2023-03-06T19:17:11.265Z,100176.03
2023-03-06T19:19:38.337Z,100179.78
2023-03-06T19:22:05.311Z,100185.19
2023-03-06T19:24:32.462Z,100172.72
2023-03-06T19:41:52.669Z,100190.06
2023-03-06T19:44:19.800Z,100174.22
2023-03-06T19:46:46.672Z,100172.84
2023-03-06T19:49:16.974Z,100179.75
2023-03-06T19:51:44.554Z,100180.28
2023-03-06T19:54:12.758Z,100169.88
2023-03-06T19:56:39.965Z,100170.72
2023-03-06T19:59:06.919Z,100168.16
2023-03-06T20:01:34.502Z,100163.97
2023-03-06T20:04:01.909Z,100162.97
2023-03-06T20:06:33.721Z,100157.59
2023-03-06T20:09:02.395Z,100154.28
2023-03-06T20:11:30.212Z,100163.31
2023-03-06T20:13:59.074Z,100158.31
2023-03-06T20:16:28.107Z,100159.13
2023-03-06T20:18:58.875Z,100167.06
2023-03-06T20:21:27.977Z,100165.13
2023-03-06T20:23:58.025Z,100158.53
2023-03-06T20:26:27.182Z,100161.66
2023-03-06T20:28:54.982Z,100161.66
2023-03-06T20:31:25.883Z,100163.50
2023-03-06T20:33:53.982Z,100164.00
2023-03-06T20:36:24.149Z,100163.81
2023-03-06T20:38:51.558Z,100156.91
2023-03-06T20:41:21.099Z,100150.06
2023-03-06T20:43:48.732Z,100164.06
2023-03-06T20:46:16.406Z,100156.41
2023-03-06T20:48:43.773Z,100153.69
2023-03-06T20:51:20.810Z,100152.88
2023-03-06T20:53:49.291Z,100158.63
2023-03-06T20:56:18.446Z,100148.69
2023-03-06T20:58:45.432Z,100156.88
2023-03-06T21:01:19.064Z,100150.63
2023-03-06T21:03:45.977Z,100152.56
2023-03-06T21:06:13.029Z,100150.63
2023-03-06T21:08:39.933Z,100154.66
2023-03-06T21:11:06.972Z,100151.09
2023-03-06T21:13:33.897Z,100149.88
2023-03-06T21:16:07.421Z,100153.41
2023-03-06T21:18:34.411Z,100137.41
2023-03-06T21:21:16.531Z,100142.38
2023-03-06T21:23:43.486Z,100144.72
2023-03-06T21:26:15.749Z,100135.84
2023-03-06T21:28:43.523Z,100129.94
2023-03-06T21:31:12.761Z,100131.25
2023-03-06T21:33:39.739Z,100138.16
2023-03-06T21:36:07.194Z,100135.22
2023-03-06T21:38:35.247Z,100132.22
2023-03-06T21:41:11.072Z,100130.69
2023-03-06T21:43:38.344Z,100123.59
2023-03-06T21:46:05.570Z,100127.03
2023-03-06T21:48:32.780Z,100121.97
2023-03-06T21:51:08.679Z,100130.31
2023-03-06T21:53:36.306Z,100129.19
2023-03-06T21:56:04.286Z,100129.88
2023-03-06T21:58:31.876Z,100121.97
2023-03-06T22:00:59.094Z,100121.78
2023-03-06T22:03:28.688Z,100120.63
2023-03-06T22:05:56.829Z,100108.88
2023-03-06T22:08:25.274Z,100111.69
2023-03-06T22:10:52.182Z,100112.75
2023-03-06T22:13:19.494Z,100103.63
2023-03-06T22:15:53.565Z,100113.88
2023-03-06T22:18:20.533Z,100106.97
2023-03-06T22:20:47.441Z,100116.75
2023-03-06T22:23:14.604Z,100113.22
2023-03-06T22:25:41.497Z,100106.53
2023-03-06T22:28:08.585Z,100105.44
2023-03-06T22:30:35.699Z,100111.94
2023-03-06T22:33:02.632Z,100109.88
2023-03-06T22:35:29.472Z,100105.72
2023-03-06T22:37:56.425Z,100107.56
2023-03-06T22:40:23.439Z,100107.03
2023-03-06T22:42:50.362Z,100101.75
2023-03-06T22:45:17.319Z,100103.97
2023-03-06T22:47:44.261Z,100103.16
2023-03-06T22:50:11.823Z,100109.50
2023-03-06T22:52:38.873Z,100102.66
2023-03-06T22:55:06.738Z,100103.41
2023-03-06T22:57:33.690Z,100098.16
2023-03-06T23:00:00.616Z,100104.38
2023-03-06T23:02:33.199Z,100097.28
2023-03-06T23:05:00.121Z,100098.78
2023-03-06T23:07:27.209Z,100094.72
2023-03-06T23:10:00.637Z,100096.63
2023-03-06T23:12:46.466Z,100105.13
2023-03-06T23:15:32.576Z,100098.38
2023-03-06T23:18:18.194Z,100095.66
2023-03-06T23:21:12.796Z,100088.84
2023-03-06T23:23:58.043Z,100081.41
2023-03-06T23:26:29.231Z,100088.00
2023-03-06T23:28:57.765Z,100088.22
2023-03-06T23:31:30.043Z,100085.69
2023-03-06T23:34:01.925Z,100081.63
2023-03-06T23:36:29.845Z,100076.75
2023-03-06T23:38:57.388Z,100082.53
2023-03-06T23:41:25.384Z,100073.75
2023-03-06T23:43:55.161Z,100071.59
2023-03-06T23:46:22.484Z,100070.78
2023-03-06T23:48:49.661Z,100070.28
2023-03-06T23:51:19.509Z,100072.22
2023-03-06T23:53:47.782Z,100068.88
2023-03-06T23:56:15.526Z,100058.00
2023-03-06T23:58:42.641Z,100064.22
